Time;durP1;ratioP1;P1;durP2;ratioP2;P2;SDS_P1;SDS_P2;PMS_P1;PMS_P2;Temp;Humidity;BMP_temperature;BMP_pressure;BME280_temperature;BME280_humidity;BME280_pressure;Samples;Min_cycle;Max_cycle;Signal;HPM_P1;HPM_P2
2022/12/10 00:01:32;;;;;;;48.05;22.85;;;-0.10;99.90;;;;;;5070731;28;20114;-76
2022/12/10 00:03:59;;;;;;;45.08;21.42;;;-0.80;99.90;;;;;;5086431;28;20043;-77
2022/12/10 00:06:30;;;;;;;47.80;22.95;;;-0.80;99.90;;;;;;5086979;28;20526;-76
2022/12/10 00:09:03;;;;;;;52.22;23.70;;;-0.80;99.90;;;;;;5075013;28;20047;-77
2022/12/10 00:11:33;;;;;;;44.58;21.77;;;-0.80;99.90;;;;;;5089972;28;20062;-75
2022/12/10 00:13:59;;;;;;;45.60;21.88;;;-0.80;99.90;;;;;;5075337;28;20044;-76
2022/12/10 00:16:27;;;;;;;54.33;24.38;;;-1.00;99.90;;;;;;5071946;28;20096;-77
2022/12/10 00:19:02;;;;;;;52.55;22.98;;;-0.80;99.90;;;;;;5088448;28;20075;-76
2022/12/10 00:21:31;;;;;;;51.05;23.30;;;-0.80;99.90;;;;;;5077392;28;20114;-76
2022/12/10 00:23:57;;;;;;;52.10;24.13;;;1.40;99.90;;;;;;5093695;28;20040;-77
2022/12/10 00:26:38;;;;;;;50.92;23.92;;;-0.70;99.90;;;;;;5072369;28;20170;-76
2022/12/10 00:29:09;;;;;;;50.83;23.25;;;-0.70;99.90;;;;;;5062914;28;20481;-75
2022/12/10 00:31:37;;;;;;;54.13;24.40;;;-0.70;99.90;;;;;;5093188;28;20040;-76
2022/12/10 00:34:06;;;;;;;48.80;24.55;;;0.50;99.90;;;;;;5073377;28;20516;-78
2022/12/10 00:36:39;;;;;;;50.88;24.17;;;-0.70;99.90;;;;;;5085660;28;20071;-76
2022/12/10 00:39:05;;;;;;;48.85;23.00;;;0.00;99.90;;;;;;5074154;28;20537;-75
2022/12/10 00:41:37;;;;;;;50.75;24.10;;;-0.70;99.90;;;;;;5071963;28;20078;-77
2022/12/10 00:44:04;;;;;;;48.50;23.80;;;-0.70;99.90;;;;;;5067696;28;20036;-75
2022/12/10 00:46:31;;;;;;;51.97;24.77;;;-0.70;99.90;;;;;;5078168;28;20036;-76
2022/12/10 00:48:58;;;;;;;50.35;23.75;;;0.20;99.90;;;;;;5069656;28;20177;-76
2022/12/10 00:51:28;;;;;;;53.13;24.00;;;1.20;99.90;;;;;;5070728;28;20040;-76
2022/12/10 00:53:56;;;;;;;54.92;25.15;;;-0.10;99.90;;;;;;5092722;28;20066;-76
2022/12/10 00:56:24;;;;;;;50.92;25.10;;;-0.70;99.90;;;;;;5086904;28;20040;-76
2022/12/10 00:58:51;;;;;;;52.38;23.70;;;-0.30;99.90;;;;;;5070550;28;20050;-76
2022/12/10 01:01:28;;;;;;;52.20;24.25;;;-0.70;99.90;;;;;;5069360;28;20296;-75
2022/12/10 01:03:57;;;;;;;54.83;25.38;;;-0.70;99.90;;;;;;5095549;28;20053;-78
2022/12/10 01:06:31;;;;;;;53.47;24.25;;;-0.80;99.90;;;;;;5089396;28;20196;-75
2022/12/10 01:08:59;;;;;;;52.90;25.15;;;-0.80;99.90;;;;;;5082091;28;20043;-76
2022/12/10 01:11:28;;;;;;;56.05;25.13;;;-0.80;99.90;;;;;;5093252;28;20044;-76
2022/12/10 01:13:54;;;;;;;52.75;24.70;;;-0.80;99.90;;;;;;5081521;28;20046;-75
2022/12/10 01:16:29;;;;;;;56.65;25.67;;;-0.80;99.90;;;;;;5086335;28;20043;-75
2022/12/10 01:18:56;;;;;;;52.15;25.23;;;-0.30;99.90;;;;;;5071662;28;20032;-76
2022/12/10 01:21:23;;;;;;;55.92;26.85;;;-0.80;99.90;;;;;;5074991;28;20032;-76
2022/12/10 01:23:51;;;;;;;56.30;25.80;;;-0.80;99.90;;;;;;5088633;28;20039;-77
2022/12/10 01:26:25;;;;;;;53.65;26.00;;;-0.90;99.90;;;;;;5088440;28;20036;-75
2022/12/10 01:28:52;;;;;;;51.88;25.08;;;-0.90;99.90;;;;;;5087425;28;20032;-76
2022/12/10 01:31:23;;;;;;;52.28;25.70;;;-0.90;99.90;;;;;;5076292;28;20032;-75
2022/12/10 01:33:50;;;;;;;58.58;25.73;;;-1.00;99.90;;;;;;5080953;28;20066;-76
2022/12/10 01:36:20;;;;;;;54.95;25.00;;;-0.90;99.90;;;;;;5069060;28;20036;-75
2022/12/10 01:38:47;;;;;;;57.75;26.05;;;-0.90;99.90;;;;;;5075990;28;20381;-76
2022/12/10 01:41:28;;;;;;;54.85;25.85;;;0.10;99.90;;;;;;5087525;28;20060;-75
2022/12/10 01:44:23;;;;;;;56.85;25.33;;;-0.90;99.90;;;;;;5085319;28;20055;-76
2022/12/10 01:46:54;;;;;;;55.45;25.95;;;0.70;99.90;;;;;;5085199;28;20040;-76
2022/12/10 01:49:22;;;;;;;58.17;25.60;;;-0.30;99.90;;;;;;5086692;28;20439;-75
2022/12/10 01:51:51;;;;;;;56.58;26.30;;;-0.90;99.90;;;;;;5070240;28;20039;-77
2022/12/10 01:54:27;;;;;;;59.45;25.98;;;-0.90;99.90;;;;;;5069839;28;20068;-75
2022/12/10 01:57:03;;;;;;;51.53;25.08;;;-0.90;99.90;;;;;;5071742;28;20063;-75
2022/12/10 01:59:30;;;;;;;59.90;25.73;;;-0.80;99.90;;;;;;5087222;28;20423;-76
2022/12/10 02:02:30;;;;;;;53.95;24.92;;;-0.90;99.90;;;;;;5068301;28;20122;-74
2022/12/10 02:05:29;;;;;;;63.70;27.85;;;-0.90;99.90;;;;;;5088064;28;20083;-75
2022/12/10 02:08:06;;;;;;;60.30;27.35;;;-0.90;99.90;;;;;;5033729;28;20104;-75
2022/12/10 02:10:53;;;;;;;56.40;25.85;;;-0.90;99.90;;;;;;5084619;28;20393;-76
2022/12/10 02:13:23;;;;;;;55.90;27.25;;;-0.90;99.90;;;;;;5088044;28;20047;-75
2022/12/10 02:16:25;;;;;;;56.75;26.23;;;-0.80;99.90;;;;;;5086908;28;20120;-76
2022/12/10 02:18:58;;;;;;;61.92;26.38;;;-0.80;99.90;;;;;;5086502;28;20039;-75
2022/12/10 02:21:33;;;;;;;57.35;26.80;;;-0.90;99.90;;;;;;5090554;28;20524;-76
2022/12/10 02:24:06;;;;;;;60.47;26.75;;;-0.90;99.90;;;;;;5071246;28;20028;-75
2022/12/10 02:26:32;;;;;;;60.95;27.13;;;-0.90;99.90;;;;;;5088636;28;20107;-76
2022/12/10 02:29:22;;;;;;;63.38;29.33;;;0.00;99.90;;;;;;5085606;28;20161;-75
2022/12/10 02:32:07;;;;;;;62.00;27.88;;;-0.50;99.90;;;;;;5082055;28;20046;-76
2022/12/10 02:34:47;;;;;;;58.28;26.85;;;-0.90;99.90;;;;;;5087817;28;20060;-75
2022/12/10 02:37:19;;;;;;;58.47;27.48;;;-1.00;99.90;;;;;;5090404;28;20493;-74
2022/12/10 02:39:52;;;;;;;61.53;28.15;;;-1.00;99.90;;;;;;5086401;28;20058;-75
2022/12/10 02:42:20;;;;;;;60.85;27.63;;;-1.00;99.90;;;;;;5085065;28;20046;-76
2022/12/10 02:44:48;;;;;;;63.95;28.42;;;-1.10;99.90;;;;;;5070555;28;20040;-75
2022/12/10 02:47:16;;;;;;;66.32;29.13;;;-1.00;99.90;;;;;;5087990;28;20067;-74
2022/12/10 02:49:47;;;;;;;64.20;27.92;;;-1.00;99.90;;;;;;5084976;28;20129;-76
2022/12/10 02:52:17;;;;;;;60.97;27.52;;;-2.90;99.90;;;;;;5084741;28;20032;-74
2022/12/10 02:54:47;;;;;;;62.75;28.73;;;-1.00;99.90;;;;;;5067630;28;20044;-75
2022/12/10 02:57:28;;;;;;;62.63;28.73;;;-1.00;99.90;;;;;;5088570;28;20500;-75
2022/12/10 03:00:15;;;;;;;61.03;29.30;;;-1.00;99.90;;;;;;5070596;28;20505;-76
2022/12/10 03:03:05;;;;;;;63.33;29.17;;;-1.00;99.90;;;;;;5085801;28;20059;-75
2022/12/10 03:06:03;;;;;;;68.35;30.08;;;-1.00;99.90;;;;;;5083148;28;20521;-74
2022/12/10 03:08:50;;;;;;;57.58;27.67;;;-1.00;99.90;;;;;;5074777;28;20036;-75
2022/12/10 03:11:23;;;;;;;60.55;27.85;;;-1.10;99.90;;;;;;5099821;28;20242;-76
2022/12/10 03:14:11;;;;;;;62.63;28.35;;;-1.00;99.90;;;;;;5082625;28;20619;-75
2022/12/10 03:16:51;;;;;;;63.90;27.70;;;-1.00;99.90;;;;;;5071125;28;20048;-75
2022/12/10 03:19:20;;;;;;;67.25;29.05;;;-1.00;99.90;;;;;;5088599;28;20051;-75
2022/12/10 03:21:48;;;;;;;63.15;29.10;;;-1.00;99.90;;;;;;5082658;28;20119;-75
2022/12/10 03:24:15;;;;;;;63.03;29.10;;;-1.40;99.90;;;;;;5070717;28;20043;-75
2022/12/10 03:26:43;;;;;;;65.63;29.25;;;-1.10;99.90;;;;;;5071100;28;20038;-75
2022/12/10 03:29:15;;;;;;;62.53;27.92;;;-1.10;99.90;;;;;;5088238;28;20127;-75
2022/12/10 03:31:41;;;;;;;59.85;27.58;;;-1.10;99.90;;;;;;5091425;28;20404;-75
2022/12/10 03:34:09;;;;;;;65.95;28.45;;;-1.10;99.90;;;;;;5085103;28;20123;-75
2022/12/10 03:36:35;;;;;;;59.92;28.98;;;-1.10;99.90;;;;;;5071316;28;20043;-76
2022/12/10 03:39:01;;;;;;;61.85;29.40;;;-0.60;99.90;;;;;;5067594;28;20050;-75
2022/12/10 03:41:27;;;;;;;63.47;28.48;;;-1.20;99.90;;;;;;5089086;28;20055;-75
2022/12/10 03:43:58;;;;;;;65.25;29.20;;;-1.20;99.90;;;;;;5089645;28;20036;-74
2022/12/10 03:46:25;;;;;;;59.60;27.88;;;-1.20;99.90;;;;;;5088979;28;20097;-75
2022/12/10 03:48:52;;;;;;;65.93;29.60;;;-1.20;99.90;;;;;;5075338;28;20040;-75
2022/12/10 03:51:18;;;;;;;65.88;30.63;;;-1.30;99.90;;;;;;5094576;28;20059;-74
2022/12/10 03:53:44;;;;;;;65.85;29.25;;;-1.30;99.90;;;;;;5092486;28;20408;-75
2022/12/10 03:56:20;;;;;;;65.00;28.02;;;-1.30;99.90;;;;;;5069680;28;20044;-76
2022/12/10 03:58:46;;;;;;;62.97;29.80;;;-1.30;99.90;;;;;;5084678;28;20095;-74
2022/12/10 04:01:12;;;;;;;65.35;29.60;;;-1.30;99.90;;;;;;5093819;28;20039;-75
2022/12/10 04:03:40;;;;;;;63.78;29.25;;;-1.30;99.90;;;;;;5075566;28;20040;-75
2022/12/10 04:06:08;;;;;;;59.47;28.95;;;-1.40;99.90;;;;;;5089469;28;20036;-74
2022/12/10 04:08:34;;;;;;;67.50;30.52;;;-1.40;99.90;;;;;;5086856;28;20127;-75
2022/12/10 04:11:05;;;;;;;70.15;30.05;;;-1.50;99.90;;;;;;5090671;28;20130;-74
2022/12/10 04:16:28;;;;;;;59.80;28.25;;;-1.40;99.90;;;;;;5062391;28;20124;-74
2022/12/10 04:19:09;;;;;;;63.47;29.52;;;-1.40;99.90;;;;;;5068838;28;20062;-75
2022/12/10 04:27:20;;;;;;;62.95;29.75;;;-1.60;99.90;;;;;;5087885;28;20122;-75
2022/12/10 04:29:46;;;;;;;63.33;28.73;;;-1.50;99.90;;;;;;5076331;28;20101;-75
2022/12/10 04:32:12;;;;;;;63.85;29.02;;;-1.60;99.90;;;;;;5088904;28;20434;-74
2022/12/10 04:34:38;;;;;;;59.85;27.98;;;-1.40;99.90;;;;;;5089699;28;20052;-75
2022/12/10 04:37:04;;;;;;;58.90;27.58;;;-1.60;99.90;;;;;;5083959;28;20044;-74
2022/12/10 04:39:31;;;;;;;61.88;28.65;;;-1.60;99.90;;;;;;5087112;28;20043;-75
2022/12/10 04:41:56;;;;;;;63.30;28.88;;;-1.60;99.90;;;;;;5091875;28;20562;-73
2022/12/10 04:44:22;;;;;;;71.00;31.10;;;-0.90;99.90;;;;;;5086962;28;20028;-75
2022/12/10 04:46:48;;;;;;;61.60;27.98;;;-1.70;99.90;;;;;;5088297;28;20456;-74
2022/12/10 04:49:15;;;;;;;60.85;29.13;;;-1.70;99.90;;;;;;5069525;28;20031;-77
2022/12/10 04:51:41;;;;;;;72.03;29.60;;;-1.70;99.90;;;;;;5073543;28;20649;-75
2022/12/10 04:54:07;;;;;;;64.30;29.30;;;-1.70;99.90;;;;;;5086590;28;20105;-75
2022/12/10 04:56:40;;;;;;;64.05;29.60;;;-0.90;99.90;;;;;;5086593;28;20089;-74
2022/12/10 04:59:06;;;;;;;65.33;31.10;;;-1.70;99.90;;;;;;5077382;28;20066;-75
2022/12/10 05:01:32;;;;;;;69.22;30.13;;;-1.80;99.90;;;;;;5060234;28;20028;-74
2022/12/10 05:04:00;;;;;;;71.20;30.40;;;-1.80;99.90;;;;;;5082380;28;20128;-75
2022/12/10 05:06:26;;;;;;;67.30;29.38;;;-1.80;99.90;;;;;;5086415;28;20047;-75
2022/12/10 05:08:53;;;;;;;70.63;30.25;;;-1.80;99.90;;;;;;5082150;28;20039;-74
2022/12/10 05:11:20;;;;;;;70.30;30.05;;;-1.80;99.90;;;;;;5086963;28;20040;-75
2022/12/10 05:13:50;;;;;;;70.43;29.52;;;-1.80;99.90;;;;;;5090979;28;20086;-77
2022/12/10 05:16:18;;;;;;;60.50;28.98;;;-1.80;99.90;;;;;;5086901;28;20101;-75
2022/12/10 05:18:44;;;;;;;73.47;31.95;;;-1.60;99.90;;;;;;5087429;28;20093;-74
2022/12/10 05:21:13;;;;;;;71.35;29.88;;;-1.80;99.90;;;;;;5069361;28;20060;-75
2022/12/10 05:23:41;;;;;;;72.80;31.33;;;-1.80;99.90;;;;;;5089813;28;20119;-74
2022/12/10 05:26:17;;;;;;;72.18;31.63;;;-1.80;99.90;;;;;;5092646;28;20045;-75
2022/12/10 05:28:46;;;;;;;74.80;30.17;;;-1.80;99.90;;;;;;5093564;28;20047;-74
2022/12/10 05:31:16;;;;;;;62.63;28.42;;;-1.80;99.90;;;;;;5073078;28;20063;-75
2022/12/10 05:33:42;;;;;;;63.63;29.50;;;-1.40;99.90;;;;;;5100170;28;20593;-75
2022/12/10 05:36:11;;;;;;;70.32;29.77;;;-1.80;99.90;;;;;;5073638;28;20421;-75
2022/12/10 05:38:40;;;;;;;63.53;29.02;;;-0.90;99.90;;;;;;5094227;28;20434;-75
2022/12/10 05:41:13;;;;;;;69.82;31.83;;;-1.70;99.90;;;;;;5084347;28;20046;-74
2022/12/10 05:43:40;;;;;;;70.35;30.55;;;-1.60;99.90;;;;;;5096221;28;20466;-75
2022/12/10 05:46:09;;;;;;;64.68;28.65;;;-1.60;99.90;;;;;;5075119;28;20050;-74
2022/12/10 05:48:35;;;;;;;79.88;33.80;;;-1.50;99.90;;;;;;5073059;28;20064;-74
2022/12/10 05:51:08;;;;;;;68.35;29.40;;;-1.50;99.90;;;;;;5060980;28;20101;-74
2022/12/10 05:53:35;;;;;;;72.40;31.45;;;-1.40;99.90;;;;;;5071189;28;20347;-73
2022/12/10 05:56:02;;;;;;;78.47;32.22;;;-1.40;99.90;;;;;;5076058;28;20052;-75
2022/12/10 05:58:29;;;;;;;79.07;31.20;;;-1.30;99.90;;;;;;5098719;28;20032;-74
2022/12/10 06:00:59;;;;;;;75.38;31.90;;;-0.70;99.90;;;;;;5093020;28;20032;-75
2022/12/10 06:03:27;;;;;;;80.55;31.77;;;-1.30;99.90;;;;;;5092207;28;20047;-74
2022/12/10 06:05:52;;;;;;;77.25;32.13;;;-1.30;99.90;;;;;;5074531;28;20032;-73
2022/12/10 06:08:19;;;;;;;82.88;33.13;;;-1.20;99.90;;;;;;5064033;28;20039;-75
2022/12/10 06:10:44;;;;;;;82.20;32.65;;;-1.20;99.90;;;;;;5100995;28;20141;-75
2022/12/10 06:13:10;;;;;;;71.97;28.85;;;-1.20;99.90;;;;;;5084813;28;20040;-75
2022/12/10 06:15:40;;;;;;;85.20;32.95;;;-1.30;99.90;;;;;;5081605;28;20047;-75
2022/12/10 06:18:06;;;;;;;79.63;32.05;;;0.40;99.90;;;;;;5080494;28;20172;-75
2022/12/10 06:20:32;;;;;;;90.05;34.60;;;-1.20;99.90;;;;;;5065610;28;20081;-74
2022/12/10 06:22:57;;;;;;;80.43;32.45;;;0.50;99.90;;;;;;5046548;28;20038;-74
2022/12/10 06:25:23;;;;;;;88.85;32.60;;;-1.20;99.90;;;;;;5098824;28;20032;-74
2022/12/10 06:27:49;;;;;;;85.65;32.90;;;-1.20;99.90;;;;;;5079762;28;20157;-75
2022/12/10 06:30:15;;;;;;;88.55;34.80;;;0.00;99.90;;;;;;5080976;28;20118;-75
2022/12/10 06:32:44;;;;;;;80.80;33.88;;;-1.20;99.90;;;;;;5067494;28;20028;-74
2022/12/10 06:35:10;;;;;;;88.38;35.17;;;-1.20;99.90;;;;;;5065442;28;20094;-74
2022/12/10 06:37:36;;;;;;;81.05;32.80;;;-1.20;99.90;;;;;;5093594;28;20543;-75
2022/12/10 06:40:04;;;;;;;84.28;33.30;;;-1.10;99.90;;;;;;5079885;28;20074;-75
2022/12/10 06:42:29;;;;;;;90.53;35.13;;;-1.20;99.90;;;;;;5095896;28;20102;-75
2022/12/10 06:44:55;;;;;;;82.25;33.25;;;-1.20;99.90;;;;;;5093852;28;20502;-75
2022/12/10 06:47:21;;;;;;;79.15;33.58;;;-2.00;99.90;;;;;;5081953;28;20036;-75
2022/12/10 06:49:50;;;;;;;83.63;34.03;;;-1.20;99.90;;;;;;5099030;28;20044;-75
2022/12/10 06:52:16;;;;;;;87.13;34.05;;;-1.80;99.90;;;;;;5065274;28;20032;-74
2022/12/10 06:54:42;;;;;;;88.78;33.97;;;-1.20;99.90;;;;;;5097884;28;20040;-75
2022/12/10 06:57:07;;;;;;;88.75;33.83;;;-1.20;99.90;;;;;;5067065;28;20036;-74
2022/12/10 06:59:33;;;;;;;80.60;31.70;;;-1.20;99.90;;;;;;5049634;28;20485;-74
2022/12/10 07:01:59;;;;;;;86.45;33.00;;;-1.20;99.90;;;;;;5094157;28;20282;-74
2022/12/10 07:04:25;;;;;;;87.38;33.47;;;-1.20;99.90;;;;;;5095068;28;20035;-76
2022/12/10 07:06:51;;;;;;;94.95;34.55;;;-1.20;99.90;;;;;;5085322;28;20473;-74
2022/12/10 07:09:16;;;;;;;86.40;33.67;;;-1.20;99.90;;;;;;5083222;28;20508;-75
2022/12/10 07:11:44;;;;;;;83.03;32.08;;;-1.10;99.90;;;;;;5076045;28;20035;-75
2022/12/10 07:14:15;;;;;;;79.78;32.10;;;-1.20;99.90;;;;;;5080178;28;20040;-74
2022/12/10 07:16:42;;;;;;;83.60;33.03;;;-1.20;99.90;;;;;;5093620;28;20046;-74
2022/12/10 07:19:21;;;;;;;103.30;33.95;;;-1.20;99.90;;;;;;5094024;28;20609;-75
2022/12/10 07:21:51;;;;;;;95.18;33.58;;;-0.30;99.90;;;;;;5073035;28;20050;-75
2022/12/10 07:24:18;;;;;;;83.13;31.33;;;-0.30;99.90;;;;;;5071253;28;20173;-75
2022/12/10 07:26:45;;;;;;;92.15;32.97;;;-1.20;99.90;;;;;;5095896;28;20575;-74
2022/12/10 07:29:20;;;;;;;95.03;33.15;;;-1.30;99.90;;;;;;5078604;28;20038;-74
2022/12/10 07:31:47;;;;;;;92.63;34.15;;;-1.30;99.90;;;;;;5097498;28;20047;-75
2022/12/10 07:34:13;;;;;;;88.90;34.28;;;-1.30;99.90;;;;;;5076999;28;20031;-76
2022/12/10 07:36:39;;;;;;;88.20;33.33;;;-0.60;99.90;;;;;;5074410;28;20654;-75
2022/12/10 07:39:07;;;;;;;97.43;35.78;;;-1.30;99.90;;;;;;5075218;28;20050;-76
2022/12/10 07:41:36;;;;;;;88.43;34.17;;;-1.30;99.90;;;;;;5089387;28;20044;-74
2022/12/10 07:44:06;;;;;;;104.53;36.17;;;-1.30;99.90;;;;;;5065812;28;20256;-75
2022/12/10 07:46:32;;;;;;;98.20;35.50;;;-1.30;99.90;;;;;;5050678;28;20039;-75
2022/12/10 07:49:05;;;;;;;99.28;35.17;;;-1.20;99.90;;;;;;5064938;28;20504;-74
2022/12/10 07:51:31;;;;;;;81.85;31.83;;;-1.20;99.90;;;;;;5077219;27;20036;-75
2022/12/10 07:54:03;;;;;;;98.60;33.13;;;-1.20;99.90;;;;;;5042347;28;20724;-74
2022/12/10 07:56:35;;;;;;;81.95;31.42;;;-1.20;99.90;;;;;;5069249;28;20071;-75
2022/12/10 07:59:03;;;;;;;97.80;34.42;;;-1.30;99.90;;;;;;5082424;28;20036;-75
2022/12/10 08:01:29;;;;;;;89.53;30.88;;;-1.30;99.90;;;;;;5068864;28;20052;-74
2022/12/10 08:03:58;;;;;;;74.65;29.60;;;-1.30;99.90;;;;;;5054298;28;20058;-75
2022/12/10 08:06:26;;;;;;;87.95;32.22;;;-1.30;99.90;;;;;;5072479;28;20043;-74
2022/12/10 08:08:52;;;;;;;80.07;30.85;;;-1.30;99.90;;;;;;5087784;28;20070;-74
2022/12/10 08:11:22;;;;;;;80.70;30.73;;;-1.30;99.90;;;;;;5083269;28;20131;-75
2022/12/10 08:13:48;;;;;;;80.82;31.08;;;-1.30;99.90;;;;;;5088137;28;20123;-75
2022/12/10 08:16:19;;;;;;;78.43;31.35;;;-1.30;99.90;;;;;;5085789;28;20044;-76
2022/12/10 08:18:46;;;;;;;91.18;33.08;;;0.20;99.90;;;;;;5070222;28;20760;-76
2022/12/10 08:21:17;;;;;;;96.97;33.95;;;-1.20;99.90;;;;;;5088373;27;20111;-76
2022/12/10 08:23:44;;;;;;;86.85;32.75;;;-0.70;99.90;;;;;;5080589;28;20525;-76
2022/12/10 08:26:16;;;;;;;82.68;31.08;;;-1.20;99.90;;;;;;5089261;28;20048;-76
2022/12/10 08:28:42;;;;;;;85.78;30.98;;;-0.50;99.90;;;;;;5098808;28;20055;-75
2022/12/10 08:31:11;;;;;;;94.40;33.05;;;-0.20;99.90;;;;;;5079516;28;20036;-75
2022/12/10 08:33:37;;;;;;;103.13;33.28;;;-1.20;99.90;;;;;;5076246;28;20043;-75
2022/12/10 08:36:05;;;;;;;84.28;32.33;;;-1.20;99.90;;;;;;5087208;28;20055;-77
2022/12/10 08:38:32;;;;;;;79.55;31.52;;;-1.20;99.90;;;;;;5082424;27;20512;-75
2022/12/10 08:40:58;;;;;;;71.57;29.45;;;-1.20;99.90;;;;;;5087606;28;20055;-76
2022/12/10 08:43:24;;;;;;;80.28;29.85;;;;;;;;;;5101105;28;20524;-77
2022/12/10 08:45:59;;;;;;;85.57;31.10;;;-1.20;99.90;;;;;;5077431;28;20082;-76
2022/12/10 08:48:24;;;;;;;90.22;31.70;;;0.20;99.90;;;;;;5094146;28;20032;-76
2022/12/10 08:50:55;;;;;;;91.32;32.63;;;-1.20;99.90;;;;;;5086865;28;20497;-76
2022/12/10 08:53:24;;;;;;;85.63;31.08;;;-1.00;99.90;;;;;;5094987;28;20100;-76
2022/12/10 08:56:01;;;;;;;71.18;29.25;;;-1.50;99.90;;;;;;5095792;28;20096;-77
2022/12/10 08:58:30;;;;;;;93.57;33.28;;;-0.30;99.90;;;;;;5089785;28;20036;-77
2022/12/10 09:00:56;;;;;;;93.07;32.20;;;-1.20;99.90;;;;;;5088454;28;20521;-77
2022/12/10 09:03:24;;;;;;;89.43;32.60;;;-1.20;99.90;;;;;;5105521;28;20059;-76
2022/12/10 09:05:50;;;;;;;82.72;31.35;;;-1.10;99.90;;;;;;5096059;28;20044;-75
2022/12/10 09:08:19;;;;;;;186.77;38.63;;;-1.10;99.90;;;;;;5093109;28;20039;-77
2022/12/10 09:10:56;;;;;;;94.68;31.80;;;-1.00;99.90;;;;;;5091647;28;20032;-76
2022/12/10 09:13:21;;;;;;;100.97;33.13;;;-0.80;99.90;;;;;;5088664;28;20486;-76
2022/12/10 09:15:52;;;;;;;105.35;32.67;;;-0.50;99.90;;;;;;5080182;28;20059;-76
2022/12/10 09:18:18;;;;;;;92.13;32.72;;;-1.00;99.90;;;;;;5086956;28;20049;-76
2022/12/10 09:20:44;;;;;;;90.30;32.63;;;-1.00;99.90;;;;;;5067608;28;20044;-76
2022/12/10 09:23:09;;;;;;;88.88;31.95;;;-1.00;99.90;;;;;;5086671;28;20630;-76
2022/12/10 09:25:36;;;;;;;101.07;33.80;;;0.00;99.90;;;;;;5085323;28;20036;-76
2022/12/10 09:28:02;;;;;;;82.85;30.48;;;-1.60;99.90;;;;;;5053337;28;20542;-77
2022/12/10 09:30:28;;;;;;;90.25;32.80;;;;;;;;;;5095193;28;20039;-76
2022/12/10 09:32:54;;;;;;;81.65;32.28;;;-0.90;99.90;;;;;;5093913;28;20031;-75
2022/12/10 09:35:20;;;;;;;93.47;32.15;;;-0.90;99.90;;;;;;5065111;28;20759;-76
2022/12/10 09:37:48;;;;;;;82.38;32.60;;;-0.90;99.90;;;;;;5093630;28;20059;-76
2022/12/10 09:40:31;;;;;;;81.55;30.45;;;-0.90;99.90;;;;;;5095557;28;20071;-76
2022/12/10 09:43:10;;;;;;;80.75;30.50;;;;;;;;;;5097025;28;20044;-78
2022/12/10 09:45:50;;;;;;;78.28;28.45;;;-0.90;99.90;;;;;;5095016;28;20052;-76
2022/12/10 09:48:32;;;;;;;90.05;31.73;;;-0.90;99.90;;;;;;5073049;28;20047;-76
2022/12/10 09:51:16;;;;;;;110.47;33.10;;;-0.90;99.90;;;;;;5074165;28;20036;-77
2022/12/10 09:53:57;;;;;;;87.30;32.10;;;-2.10;99.90;;;;;;5078795;28;20477;-76
2022/12/10 09:56:29;;;;;;;82.13;31.35;;;-0.90;99.90;;;;;;5089233;28;20192;-76
2022/12/10 09:59:03;;;;;;;85.07;31.73;;;-0.90;99.90;;;;;;5095334;28;20043;-77
2022/12/10 10:01:35;;;;;;;104.07;35.75;;;-1.00;99.90;;;;;;5091636;28;20044;-79
2022/12/10 10:04:05;;;;;;;89.30;32.17;;;-0.70;99.90;;;;;;5099558;28;20142;-77
2022/12/10 10:06:33;;;;;;;91.80;35.72;;;-0.90;99.90;;;;;;5090671;28;20064;-78
2022/12/10 10:09:02;;;;;;;89.32;33.22;;;1.30;99.90;;;;;;5098504;28;20036;-77
2022/12/10 10:11:34;;;;;;;117.78;36.80;;;-0.80;99.90;;;;;;5093526;28;20505;-77
2022/12/10 10:14:14;;;;;;;95.18;36.38;;;-0.80;99.90;;;;;;5093901;28;20078;-76
2022/12/10 10:17:01;;;;;;;93.32;33.55;;;-0.80;99.90;;;;;;5096360;28;20075;-76
2022/12/10 10:19:41;;;;;;;104.00;36.13;;;-0.80;99.90;;;;;;5099051;28;20067;-76
2022/12/10 10:22:09;;;;;;;103.13;36.80;;;0.40;99.90;;;;;;5088278;28;20564;-76
2022/12/10 10:24:38;;;;;;;101.65;36.83;;;-0.80;99.90;;;;;;5098756;28;20089;-76
2022/12/10 10:27:15;;;;;;;105.93;35.75;;;-0.70;99.90;;;;;;5096696;28;20116;-77
2022/12/10 10:29:47;;;;;;;103.88;36.38;;;-0.70;99.90;;;;;;5095800;28;20547;-77
2022/12/10 10:32:15;;;;;;;109.18;36.25;;;-0.60;99.90;;;;;;5092582;28;20038;-77
2022/12/10 10:34:43;;;;;;;98.13;36.47;;;-0.60;99.90;;;;;;5100839;28;20149;-79
2022/12/10 10:37:25;;;;;;;96.97;36.28;;;-0.60;99.90;;;;;;5097894;28;20941;-77
2022/12/10 10:39:51;;;;;;;97.97;34.92;;;;;;;;;;5083219;28;20044;-78
2022/12/10 10:42:33;;;;;;;104.22;34.80;;;-0.60;99.90;;;;;;5090821;28;20044;-76
2022/12/10 10:44:59;;;;;;;98.90;35.00;;;-0.50;99.90;;;;;;5094008;28;20091;-78
2022/12/10 10:47:37;;;;;;;81.55;32.15;;;-0.50;99.90;;;;;;5078085;28;20043;-77
2022/12/10 10:50:04;;;;;;;83.63;30.80;;;-0.50;99.90;;;;;;5098179;28;20084;-76
2022/12/10 10:52:44;;;;;;;81.30;31.20;;;-0.40;99.90;;;;;;5071153;28;20032;-77
2022/12/10 10:55:35;;;;;;;94.85;34.17;;;-0.40;99.90;;;;;;5094428;28;20176;-77
2022/12/10 10:58:21;;;;;;;85.65;32.80;;;-0.40;99.90;;;;;;5093004;28;20119;-77
2022/12/10 11:01:16;;;;;;;100.00;34.13;;;-0.40;99.90;;;;;;5080841;28;20040;-78
2022/12/10 11:03:52;;;;;;;82.72;31.30;;;-0.40;99.90;;;;;;5075407;28;20108;-76
2022/12/10 11:06:18;;;;;;;79.20;30.63;;;-0.30;99.90;;;;;;5093406;28;20038;-76
2022/12/10 11:08:53;;;;;;;91.85;34.10;;;-0.30;99.90;;;;;;5082476;28;20044;-77
2022/12/10 11:11:32;;;;;;;91.63;32.85;;;-0.30;99.90;;;;;;5077490;28;20112;-77
2022/12/10 11:14:36;;;;;;;89.88;33.25;;;-0.20;99.90;;;;;;5092406;28;20081;-77
2022/12/10 11:17:10;;;;;;;84.22;31.90;;;-0.20;99.90;;;;;;5088094;28;20115;-77
2022/12/10 11:19:43;;;;;;;83.78;32.10;;;-0.20;99.90;;;;;;5081883;28;20053;-77
2022/12/10 11:22:37;;;;;;;90.50;33.38;;;1.30;99.90;;;;;;5092843;28;20047;-77
2022/12/10 11:25:05;;;;;;;101.88;36.15;;;-0.20;99.90;;;;;;5096250;28;20035;-77
2022/12/10 11:28:15;;;;;;;84.90;33.13;;;-0.10;99.90;;;;;;5098528;28;20039;-78
2022/12/10 11:31:03;;;;;;;88.18;32.83;;;0.00;99.90;;;;;;5049346;28;20153;-77
2022/12/10 11:33:41;;;;;;;92.15;34.42;;;-0.30;99.90;;;;;;5099222;28;20051;-77
2022/12/10 11:36:37;;;;;;;87.80;34.25;;;0.10;99.90;;;;;;5074700;28;20104;-78
2022/12/10 11:39:22;;;;;;;88.10;32.80;;;0.10;99.90;;;;;;5063942;28;20039;-77
2022/12/10 11:41:50;;;;;;;98.03;35.80;;;-1.10;99.90;;;;;;5093368;28;20531;-78
2022/12/10 11:44:22;;;;;;;83.95;31.88;;;0.20;99.90;;;;;;5089672;28;20059;-77
2022/12/10 11:47:05;;;;;;;97.82;35.75;;;0.10;99.90;;;;;;5088761;28;20035;-78
2022/12/10 11:49:59;;;;;;;90.45;33.53;;;0.10;99.90;;;;;;5091747;28;20346;-77
2022/12/10 11:53:04;;;;;;;82.15;32.22;;;0.10;99.90;;;;;;5070583;28;21104;-77
2022/12/10 11:55:30;;;;;;;77.20;31.75;;;0.00;99.90;;;;;;5096470;28;20032;-77
2022/12/10 11:58:28;;;;;;;94.72;33.95;;;0.50;99.90;;;;;;5073749;28;20523;-77
2022/12/10 12:01:03;;;;;;;84.90;32.33;;;0.00;99.90;;;;;;5092384;28;20031;-78
2022/12/10 12:03:38;;;;;;;84.05;31.67;;;0.00;99.90;;;;;;5103530;28;20397;-78
2022/12/10 12:06:22;;;;;;;79.68;32.53;;;0.20;99.90;;;;;;5076002;28;20032;-79
2022/12/10 12:09:05;;;;;;;77.47;32.00;;;0.10;99.90;;;;;;5097447;28;20043;-78
2022/12/10 12:12:03;;;;;;;82.13;32.35;;;0.20;99.90;;;;;;5095596;28;20115;-77
2022/12/10 12:14:36;;;;;;;85.05;32.05;;;-0.30;99.90;;;;;;5098644;28;20044;-77
2022/12/10 12:17:25;;;;;;;78.22;29.98;;;0.00;99.90;;;;;;5097384;28;20044;-78
2022/12/10 12:20:04;;;;;;;79.38;32.15;;;0.00;99.90;;;;;;5095931;28;20039;-78
2022/12/10 12:22:38;;;;;;;81.00;29.65;;;-0.10;99.90;;;;;;5095486;28;20044;-77
2022/12/10 12:25:16;;;;;;;76.78;30.20;;;0.00;99.90;;;;;;5100214;28;20035;-78
2022/12/10 12:27:53;;;;;;;72.70;30.67;;;0.10;99.90;;;;;;5099905;28;20044;-78
2022/12/10 12:30:22;;;;;;;82.40;30.23;;;0.00;99.90;;;;;;5090326;28;20182;-79
2022/12/10 12:33:04;;;;;;;73.20;29.52;;;0.10;99.90;;;;;;5094970;28;20042;-78
2022/12/10 12:35:35;;;;;;;74.43;29.92;;;0.00;99.90;;;;;;5080705;28;20218;-79
2022/12/10 12:38:24;;;;;;;74.38;30.40;;;0.10;99.90;;;;;;5097233;28;20072;-80
2022/12/10 12:41:35;;;;;;;79.03;29.08;;;0.10;99.90;;;;;;5102130;28;20455;-78
2022/12/10 12:44:17;;;;;;;78.85;28.70;;;;;;;;;;5058442;28;20055;-80
2022/12/10 12:46:46;;;;;;;75.37;28.67;;;0.00;99.90;;;;;;5081872;28;20032;-77
2022/12/10 12:49:29;;;;;;;80.32;31.27;;;0.00;99.90;;;;;;5094016;28;20585;-79
2022/12/10 12:52:18;;;;;;;88.32;32.58;;;0.00;99.90;;;;;;5062453;28;20524;-79
2022/12/10 12:54:44;;;;;;;66.78;27.27;;;0.00;99.90;;;;;;5091605;28;20082;-79
2022/12/10 12:57:36;;;;;;;63.97;26.50;;;0.40;99.90;;;;;;5087225;28;20124;-79
2022/12/10 13:00:06;;;;;;;67.93;27.27;;;0.00;99.90;;;;;;5088626;28;20445;-79
2022/12/10 13:02:50;;;;;;;59.92;24.85;;;0.00;99.90;;;;;;5088407;28;20056;-77
2022/12/10 13:05:29;;;;;;;65.60;26.73;;;0.10;99.90;;;;;;5089163;28;20067;-77